RKPK/PUS METAR and TAF weather

Enter ICAO airport designator
Station Type Date Time Source
RKPK METAR 2018/12/18 19:00 UTC NOAA

RKPK 181900Z 32003KT CAVOK M02/M04 Q1021


Station Type Date Time Source
RKPK Decoded METAR 2018/12/18 19:00 UTC NOAA

Pusan / Kimhae International Airport, Korea, South (RKPK) 35-11N 128-56E 6M
Dec 18, 2018 - 02:00 PM EST / 2018.12.18 1900 UTC
Wind: from the NW (320 degrees) at 3 MPH (3 KT):0
Visibility: greater than 7 mile(s):0
Temperature: 28 F (-2 C)
Dew Point: 24 F (-4 C)
Relative Humidity: 86%
Pressure (altimeter): 30.15 in. Hg (1021 hPa)
ob: RKPK 181900Z 32003KT CAVOK M02/M04 Q1021
cycle: 19

Station Type Date Time Source
RKPK TAF 2018/12/18 18:08 UTC NOAA

TAF RKPK 181700Z 1818/1924 27006KT 9999 SCT030 SCT200 TNM02/1821Z TX12/1906Z
BECMG 1918/1919 33006KT SCT030 BKN100


Example: see airport list